KSUW/SUW METAR and TAF weather

Enter ICAO airport designator
Station Type Date Time Source
KSUW METAR 2019/12/10 03:15 UTC NOAA

KSUW 100315Z AUTO 32008KT 10SM SCT021 M16/M19 A2989 RMK AO2 T11561194


Station Type Date Time Source
KSUW Decoded METAR 2019/12/10 03:15 UTC NOAA

Superior, Richard I. Bong Airport, WI, United States (KSUW) 46-41-23N 092-05-41W
Dec 09, 2019 - 10:15 PM EST / 2019.12.10 0315 UTC
Wind: from the NW (320 degrees) at 9 MPH (8 KT):0
Visibility: 10 mile(s):0
Sky conditions: partly cloudy
Temperature: 3.9 F (-15.6 C)
Windchill: -9 F (-23 C):2
Dew Point: -2.9 F (-19.4 C)
Relative Humidity: 72%
Pressure (altimeter): 29.89 in. Hg (1012 hPa)
ob: KSUW 100315Z AUTO 32008KT 10SM SCT021 M16/M19 A2989 RMK AO2 T11561194
cycle: 3

Station Type Date Time Source
KSUW TAF UTC NOAA

Error!

Example: see airport list